Time;durP1;ratioP1;P1;durP2;ratioP2;P2;SDS_P1;SDS_P2;PMS_P1;PMS_P2;Temp;Humidity;BMP_temperature;BMP_pressure;BME280_temperature;BME280_humidity;BME280_pressure;Samples;Min_cycle;Max_cycle;Signal;HPM_P1;HPM_P2
2022/03/22 00:01:01;;;;;;;97.50;37.20;;;5.60;99.90;;;;;;5037882;28;20059;-68
2022/03/22 00:03:26;;;;;;;105.30;37.63;;;5.60;99.90;;;;;;5051513;28;20033;-69
2022/03/22 00:05:53;;;;;;;101.60;36.60;;;5.60;99.90;;;;;;5050975;28;20040;-68
2022/03/22 00:08:19;;;;;;;90.95;35.25;;;5.60;99.90;;;;;;5049327;28;20122;-69
2022/03/22 00:10:45;;;;;;;98.85;36.83;;;5.60;99.90;;;;;;5048742;28;20503;-69
2022/03/22 00:13:11;;;;;;;98.88;38.00;;;5.60;99.90;;;;;;5048749;28;20456;-69
2022/03/22 00:15:38;;;;;;;109.05;40.80;;;5.50;99.90;;;;;;5047287;28;20036;-69
2022/03/22 00:18:04;;;;;;;112.78;40.88;;;5.50;99.90;;;;;;5049225;28;20435;-69
2022/03/22 00:20:30;;;;;;;110.80;40.60;;;5.50;99.90;;;;;;5046701;28;20099;-69
2022/03/22 00:22:57;;;;;;;100.85;37.97;;;5.50;99.90;;;;;;5049379;28;20377;-69
2022/03/22 00:25:23;;;;;;;91.70;34.17;;;5.50;99.90;;;;;;5049203;28;20045;-68
2022/03/22 00:27:53;;;;;;;85.15;31.95;;;5.40;99.90;;;;;;5048755;28;20083;-68
2022/03/22 00:30:19;;;;;;;88.55;33.25;;;5.30;99.90;;;;;;5047125;28;20040;-68
2022/03/22 00:32:46;;;;;;;79.10;31.15;;;5.20;99.90;;;;;;5041037;28;20048;-68
2022/03/22 00:35:11;;;;;;;104.75;38.60;;;5.00;99.90;;;;;;5063247;28;20041;-68
2022/03/22 00:37:40;;;;;;;106.28;39.40;;;5.10;99.90;;;;;;5042780;28;20029;-68
2022/03/22 00:40:16;;;;;;;104.10;38.67;;;5.10;99.90;;;;;;5045945;28;20082;-69
2022/03/22 00:42:42;;;;;;;102.25;38.20;;;5.10;99.90;;;;;;5062324;28;20447;-69
2022/03/22 00:45:08;;;;;;;110.70;39.42;;;5.10;99.90;;;;;;5047763;28;20102;-69
2022/03/22 00:47:34;;;;;;;120.78;40.22;;;5.10;99.90;;;;;;5049556;28;20049;-68
2022/03/22 00:50:00;;;;;;;116.93;41.10;;;5.20;99.90;;;;;;5046361;28;20033;-69
2022/03/22 00:52:26;;;;;;;121.43;42.67;;;5.20;99.90;;;;;;5044207;28;20132;-68
2022/03/22 00:54:52;;;;;;;115.05;42.60;;;5.20;99.90;;;;;;5050552;28;20399;-69
2022/03/22 00:57:18;;;;;;;118.95;43.30;;;5.20;99.90;;;;;;5064850;28;20123;-68
2022/03/22 01:00:03;;;;;;;127.53;42.53;;;5.30;99.90;;;;;;5065062;28;20041;-68
2022/03/22 01:02:29;;;;;;;124.57;41.80;;;5.30;99.90;;;;;;5043447;28;20098;-68
2022/03/22 01:04:56;;;;;;;108.70;38.92;;;5.30;99.90;;;;;;5050988;28;20388;-68
2022/03/22 01:07:22;;;;;;;115.38;41.25;;;5.30;99.90;;;;;;5052507;28;20388;-68
2022/03/22 01:09:47;;;;;;;101.45;36.55;;;5.20;99.90;;;;;;5051471;28;20045;-68
2022/03/22 01:12:13;;;;;;;100.50;37.70;;;5.20;99.90;;;;;;5052290;28;20079;-68
2022/03/22 01:14:39;;;;;;;100.53;37.90;;;5.20;99.90;;;;;;5052433;28;20041;-68
2022/03/22 01:17:06;;;;;;;120.20;42.33;;;5.20;99.90;;;;;;5051233;28;20075;-68
2022/03/22 01:19:32;;;;;;;117.90;40.38;;;5.20;99.90;;;;;;5051460;28;20076;-68
2022/03/22 01:21:59;;;;;;;129.27;43.85;;;5.20;99.90;;;;;;5052080;28;20041;-68
2022/03/22 01:24:26;;;;;;;126.78;44.35;;;5.20;99.90;;;;;;5050143;28;20403;-68
2022/03/22 01:26:52;;;;;;;127.40;45.88;;;5.20;99.90;;;;;;5052049;28;20041;-68
2022/03/22 01:29:18;;;;;;;123.82;44.15;;;5.20;99.90;;;;;;5051553;28;20044;-68
2022/03/22 01:31:44;;;;;;;122.05;45.95;;;5.20;99.90;;;;;;5050523;28;20072;-68
2022/03/22 01:34:10;;;;;;;135.75;48.05;;;5.30;99.90;;;;;;5054959;28;20045;-68
2022/03/22 01:36:36;;;;;;;129.07;44.30;;;5.30;99.90;;;;;;5051950;28;20052;-68
2022/03/22 01:39:03;;;;;;;125.50;45.28;;;5.40;99.90;;;;;;5051177;28;20500;-68
2022/03/22 01:41:29;;;;;;;122.20;42.92;;;5.40;99.90;;;;;;5050652;28;20049;-68
2022/03/22 01:43:55;;;;;;;119.38;44.22;;;5.40;99.90;;;;;;5051456;28;20068;-68
2022/03/22 01:46:25;;;;;;;141.55;48.13;;;5.30;99.90;;;;;;5049713;28;20336;-68
2022/03/22 01:48:52;;;;;;;124.78;43.50;;;5.40;99.90;;;;;;5050213;28;20095;-68
2022/03/22 01:51:22;;;;;;;125.50;44.78;;;5.30;99.90;;;;;;5049576;28;20135;-68
2022/03/22 01:53:49;;;;;;;126.60;45.72;;;5.40;99.90;;;;;;5049707;28;20171;-68
2022/03/22 01:56:14;;;;;;;111.10;40.13;;;5.30;99.90;;;;;;5052017;28;20052;-68
2022/03/22 01:58:41;;;;;;;113.28;41.80;;;5.30;99.90;;;;;;5049184;28;20037;-68
2022/03/22 02:06:36;;;;;;;124.85;43.95;;;5.20;99.90;;;;;;5050494;28;20507;-68
2022/03/22 02:09:02;;;;;;;115.40;39.67;;;5.10;99.90;;;;;;5031397;28;20025;-68
2022/03/22 02:11:28;;;;;;;117.35;44.10;;;5.00;99.90;;;;;;5046553;28;20503;-68
2022/03/22 02:13:55;;;;;;;124.50;44.35;;;4.90;99.90;;;;;;5042962;28;20075;-68
2022/03/22 02:16:22;;;;;;;127.82;46.30;;;5.00;99.90;;;;;;5051286;28;20045;-68
2022/03/22 02:18:50;;;;;;;131.35;46.15;;;5.00;99.90;;;;;;5050261;28;20072;-68
2022/03/22 02:21:16;;;;;;;139.48;45.30;;;5.10;99.90;;;;;;5034552;28;20504;-68
2022/03/22 02:23:50;;;;;;;125.20;45.22;;;5.10;99.90;;;;;;5049937;28;20403;-68
2022/03/22 02:26:16;;;;;;;127.75;46.10;;;5.10;99.90;;;;;;5050834;28;20041;-68
2022/03/22 02:28:43;;;;;;;126.20;45.65;;;5.10;99.90;;;;;;5031446;28;20487;-68
2022/03/22 02:31:09;;;;;;;127.38;45.50;;;5.10;99.90;;;;;;5052572;28;20041;-68
2022/03/22 02:33:35;;;;;;;130.65;45.53;;;5.00;99.90;;;;;;5063137;28;20091;-68
2022/03/22 02:36:00;;;;;;;119.43;42.47;;;5.00;99.90;;;;;;5051551;28;20075;-68
2022/03/22 02:38:26;;;;;;;117.55;42.45;;;5.00;99.90;;;;;;5037112;28;20563;-68
2022/03/22 02:40:52;;;;;;;112.13;41.83;;;4.90;99.90;;;;;;5041377;28;20049;-68
2022/03/22 02:43:17;;;;;;;114.45;41.70;;;4.80;99.90;;;;;;5049773;28;20041;-68
2022/03/22 02:45:43;;;;;;;115.45;40.80;;;4.80;99.90;;;;;;5050447;28;20488;-68
2022/03/22 02:48:11;;;;;;;125.03;44.03;;;4.80;99.90;;;;;;5050693;28;20206;-68
2022/03/22 02:50:36;;;;;;;93.68;36.05;;;4.70;99.90;;;;;;5050270;28;20067;-68
2022/03/22 02:53:02;;;;;;;93.10;34.03;;;4.60;99.90;;;;;;5050606;28;20037;-68
2022/03/22 02:55:28;;;;;;;88.18;34.20;;;4.60;99.90;;;;;;5025609;28;20042;-68
2022/03/22 02:57:54;;;;;;;87.90;30.75;;;4.50;99.90;;;;;;5064473;28;20128;-68
2022/03/22 03:00:20;;;;;;;81.05;32.67;;;4.40;99.90;;;;;;5048316;28;20040;-68
2022/03/22 03:02:51;;;;;;;96.10;35.67;;;4.30;99.90;;;;;;5050266;28;20478;-68
2022/03/22 03:05:18;;;;;;;123.80;43.53;;;4.20;99.90;;;;;;5040838;28;20124;-68
2022/03/22 03:07:44;;;;;;;125.80;46.50;;;4.20;99.90;;;;;;5039308;28;20499;-68
2022/03/22 03:10:10;;;;;;;131.63;45.90;;;4.30;99.90;;;;;;5049526;28;20124;-68
2022/03/22 03:12:36;;;;;;;131.48;46.72;;;4.30;99.90;;;;;;5049959;28;20040;-68
2022/03/22 03:15:03;;;;;;;87.50;32.15;;;4.40;99.90;;;;;;5049622;28;20033;-68
2022/03/22 03:17:29;;;;;;;113.03;40.85;;;4.40;99.90;;;;;;5049168;28;20041;-68
2022/03/22 03:19:55;;;;;;;98.57;37.35;;;4.40;99.90;;;;;;5049848;28;20123;-68
2022/03/22 03:22:20;;;;;;;105.28;39.38;;;4.30;99.90;;;;;;5048317;28;20039;-68
2022/03/22 03:24:46;;;;;;;98.05;36.22;;;4.30;99.90;;;;;;5049597;28;20040;-68
2022/03/22 03:27:12;;;;;;;108.93;41.35;;;4.30;99.90;;;;;;5049402;28;20517;-68
2022/03/22 03:29:37;;;;;;;119.00;44.05;;;4.30;99.90;;;;;;5049057;28;20033;-68
2022/03/22 03:32:03;;;;;;;126.05;44.50;;;4.30;99.90;;;;;;5048506;28;20039;-68
2022/03/22 03:34:29;;;;;;;123.18;45.67;;;4.30;99.90;;;;;;5049772;28;20395;-68
2022/03/22 03:36:54;;;;;;;127.70;45.80;;;4.30;99.90;;;;;;5049156;28;20431;-68
2022/03/22 03:39:20;;;;;;;128.90;46.75;;;4.40;99.90;;;;;;5048995;28;20049;-68
2022/03/22 03:41:55;;;;;;;134.02;45.80;;;4.40;99.90;;;;;;5049187;28;20091;-69
2022/03/22 03:47:09;;;;;;;133.15;47.33;;;4.40;99.90;;;;;;5046894;28;20065;-68
2022/03/22 03:49:41;;;;;;;118.72;41.30;;;4.40;99.90;;;;;;5049634;28;20080;-68
2022/03/22 03:52:11;;;;;;;111.70;42.15;;;4.40;99.90;;;;;;5049796;28;20056;-68
2022/03/22 03:54:38;;;;;;;86.13;33.53;;;4.30;99.90;;;;;;5045810;28;20051;-68
2022/03/22 03:57:04;;;;;;;90.60;33.67;;;4.20;99.90;;;;;;5047260;28;20095;-68
2022/03/22 03:59:30;;;;;;;91.95;34.25;;;4.10;99.90;;;;;;5037610;28;20434;-68
2022/03/22 04:01:56;;;;;;;99.07;36.70;;;4.10;99.90;;;;;;5047714;28;20029;-68
2022/03/22 04:04:22;;;;;;;83.68;31.73;;;4.00;99.90;;;;;;5042640;28;20614;-68
2022/03/22 04:06:47;;;;;;;75.47;30.30;;;4.00;99.90;;;;;;5050365;28;20025;-68
2022/03/22 04:09:14;;;;;;;101.63;37.13;;;3.90;99.90;;;;;;5049217;28;20561;-68
2022/03/22 04:11:40;;;;;;;119.63;42.72;;;4.00;99.90;;;;;;5019339;28;20527;-68
2022/03/22 04:14:06;;;;;;;123.43;45.38;;;3.90;99.90;;;;;;5037665;28;20041;-68
2022/03/22 04:16:32;;;;;;;124.78;44.55;;;4.00;99.90;;;;;;5061136;28;20433;-68
2022/03/22 04:18:58;;;;;;;129.25;46.08;;;4.00;99.90;;;;;;5048961;28;20110;-68
2022/03/22 04:21:23;;;;;;;131.98;47.58;;;4.00;99.90;;;;;;5046382;28;20052;-68
2022/03/22 04:23:49;;;;;;;135.75;47.75;;;4.00;99.90;;;;;;5058214;28;20041;-68
2022/03/22 04:26:14;;;;;;;131.88;48.13;;;4.10;99.90;;;;;;5022608;28;20118;-68
2022/03/22 04:34:08;;;;;;;132.77;47.40;;;4.20;99.90;;;;;;5053276;28;20044;-68
2022/03/22 04:36:35;;;;;;;139.77;47.20;;;4.20;99.90;;;;;;5052518;28;20040;-68
2022/03/22 04:39:01;;;;;;;138.65;50.30;;;4.20;99.90;;;;;;5052714;28;20510;-68
2022/03/22 04:41:27;;;;;;;125.90;45.70;;;4.30;99.90;;;;;;5044543;28;20423;-68
2022/03/22 04:43:52;;;;;;;126.43;45.47;;;4.20;99.90;;;;;;5067962;28;20041;-68
2022/03/22 04:46:18;;;;;;;130.45;48.30;;;4.20;99.90;;;;;;5053238;28;20068;-68
2022/03/22 04:48:48;;;;;;;144.05;49.08;;;4.20;99.90;;;;;;5033784;28;20037;-68
2022/03/22 04:56:48;;;;;;;134.43;46.63;;;4.20;99.90;;;;;;5052080;28;20048;-68
2022/03/22 04:59:23;;;;;;;126.32;43.92;;;4.20;99.90;;;;;;5051976;28;20450;-68
2022/03/22 05:01:50;;;;;;;128.90;46.28;;;4.20;99.90;;;;;;5052378;28;20051;-68
2022/03/22 05:04:15;;;;;;;133.20;46.85;;;4.20;99.90;;;;;;5050198;28;20447;-68
2022/03/22 05:06:42;;;;;;;140.40;48.90;;;4.20;99.90;;;;;;5052276;28;20025;-68
2022/03/22 05:09:08;;;;;;;137.15;48.58;;;4.20;99.90;;;;;;5052124;28;20083;-68
2022/03/22 05:11:34;;;;;;;133.05;49.45;;;4.20;99.90;;;;;;5052326;28;20115;-68
2022/03/22 05:14:00;;;;;;;148.57;51.50;;;4.30;99.90;;;;;;5052396;28;20124;-68
2022/03/22 05:16:26;;;;;;;137.27;49.83;;;4.30;99.90;;;;;;5052427;28;20053;-68
2022/03/22 05:18:53;;;;;;;137.40;49.28;;;4.30;99.90;;;;;;5050311;28;20517;-68
2022/03/22 05:21:19;;;;;;;133.02;47.72;;;4.30;99.90;;;;;;5052565;28;20541;-68
2022/03/22 05:23:45;;;;;;;152.05;52.10;;;4.30;99.90;;;;;;5051684;28;20043;-68
2022/03/22 05:26:12;;;;;;;144.02;51.80;;;4.40;99.90;;;;;;5050651;28;20036;-68
2022/03/22 05:28:38;;;;;;;143.80;51.15;;;4.40;99.90;;;;;;5034357;28;20261;-68
2022/03/22 05:31:05;;;;;;;143.00;50.97;;;4.40;99.90;;;;;;5051761;28;20392;-68
2022/03/22 05:33:30;;;;;;;140.77;50.70;;;4.40;99.90;;;;;;5051992;28;20041;-68
2022/03/22 05:35:56;;;;;;;139.32;51.75;;;4.40;99.90;;;;;;5049555;28;20044;-68
2022/03/22 05:38:25;;;;;;;139.88;49.88;;;4.40;99.90;;;;;;5051749;28;20132;-68
2022/03/22 05:40:51;;;;;;;135.10;50.90;;;4.40;99.90;;;;;;5050576;28;20047;-68
2022/03/22 05:43:17;;;;;;;135.80;49.50;;;4.40;99.90;;;;;;5051035;28;20041;-68
2022/03/22 05:45:48;;;;;;;134.98;48.95;;;4.40;99.90;;;;;;5050337;28;20091;-68
2022/03/22 05:48:20;;;;;;;140.57;49.45;;;4.50;99.90;;;;;;5071568;28;20380;-68
2022/03/22 05:54:26;;;;;;;148.65;49.40;;;4.40;99.90;;;;;;5054912;28;20506;-67
2022/03/22 05:56:52;;;;;;;129.57;46.58;;;4.50;99.90;;;;;;5052949;28;20057;-68
2022/03/22 05:59:17;;;;;;;138.88;49.53;;;4.40;99.90;;;;;;5050628;28;20128;-68
2022/03/22 06:01:44;;;;;;;132.20;46.42;;;4.40;99.90;;;;;;5051060;28;20490;-68
2022/03/22 06:04:11;;;;;;;134.25;47.67;;;4.40;99.90;;;;;;5053062;28;20504;-68
2022/03/22 06:06:37;;;;;;;131.70;47.70;;;4.50;99.90;;;;;;5050143;28;20423;-68
2022/03/22 06:09:03;;;;;;;129.60;47.75;;;4.40;99.90;;;;;;5048880;28;20119;-68
2022/03/22 06:11:35;;;;;;;142.25;48.45;;;4.40;99.90;;;;;;5049164;28;20045;-68
2022/03/22 06:14:04;;;;;;;132.75;47.05;;;4.40;99.90;;;;;;5035579;28;20065;-68
2022/03/22 06:16:30;;;;;;;130.60;47.53;;;4.50;99.90;;;;;;5051001;28;20041;-68
2022/03/22 06:18:56;;;;;;;132.68;49.13;;;4.50;99.90;;;;;;5033983;28;20052;-68
2022/03/22 06:21:22;;;;;;;128.95;48.58;;;4.50;99.90;;;;;;5061283;28;20056;-68
2022/03/22 06:23:47;;;;;;;128.45;46.83;;;4.60;99.90;;;;;;5066500;28;20041;-68
2022/03/22 06:26:14;;;;;;;135.82;47.22;;;4.60;99.90;;;;;;5050588;28;20465;-68
2022/03/22 06:28:40;;;;;;;131.23;46.35;;;4.60;99.90;;;;;;5046210;28;20045;-68
2022/03/22 06:31:06;;;;;;;131.10;48.85;;;4.70;99.90;;;;;;5067253;28;20033;-68
2022/03/22 06:33:32;;;;;;;133.90;50.63;;;4.70;99.90;;;;;;5057850;28;20038;-68
2022/03/22 06:35:57;;;;;;;135.85;50.70;;;4.70;99.90;;;;;;5070610;28;20487;-68
2022/03/22 06:38:23;;;;;;;139.93;50.53;;;4.80;99.90;;;;;;5070552;28;20048;-68
2022/03/22 06:40:50;;;;;;;137.38;49.70;;;4.80;99.90;;;;;;5069785;28;20049;-68
2022/03/22 06:43:16;;;;;;;135.15;48.30;;;4.90;99.90;;;;;;5057913;28;20055;-68
2022/03/22 06:45:46;;;;;;;132.65;49.60;;;5.00;99.90;;;;;;5051392;28;20467;-68
2022/03/22 06:48:13;;;;;;;127.82;47.72;;;5.00;99.90;;;;;;5049100;28;20396;-68
2022/03/22 06:50:39;;;;;;;124.18;47.28;;;5.10;99.90;;;;;;5049814;28;20079;-69
2022/03/22 06:53:06;;;;;;;136.98;49.58;;;5.20;99.90;;;;;;5048987;28;20623;-69
2022/03/22 06:55:33;;;;;;;138.77;49.25;;;5.30;99.90;;;;;;5049910;28;20080;-69
2022/03/22 06:57:59;;;;;;;133.45;49.75;;;5.40;99.90;;;;;;5049429;28;20107;-69
2022/03/22 07:00:28;;;;;;;131.07;49.55;;;5.50;99.90;;;;;;5048268;28;20601;-69
2022/03/22 07:02:55;;;;;;;137.23;51.13;;;5.60;99.90;;;;;;5050067;28;20090;-69
2022/03/22 07:05:21;;;;;;;142.48;52.25;;;5.70;99.90;;;;;;5049102;28;20436;-69
2022/03/22 07:07:46;;;;;;;137.05;51.08;;;5.80;99.90;;;;;;5049669;28;20132;-69
2022/03/22 07:10:15;;;;;;;141.90;51.05;;;5.90;99.90;;;;;;5048890;28;20029;-69
2022/03/22 07:12:52;;;;;;;133.40;50.25;;;6.10;99.90;;;;;;5029958;28;20045;-69
2022/03/22 07:15:23;;;;;;;134.73;50.75;;;6.20;99.90;;;;;;5047807;28;20107;-69
2022/03/22 07:17:50;;;;;;;145.23;52.25;;;6.40;99.90;;;;;;5045882;28;20106;-69
2022/03/22 07:20:15;;;;;;;142.23;53.30;;;6.60;99.90;;;;;;5046857;28;20052;-69
2022/03/22 07:22:43;;;;;;;142.82;52.65;;;6.70;99.90;;;;;;5055820;28;20045;-70
2022/03/22 07:25:09;;;;;;;138.60;52.55;;;6.80;99.90;;;;;;5030538;28;20037;-70
2022/03/22 07:27:34;;;;;;;149.10;53.58;;;7.00;99.90;;;;;;5046349;28;20168;-70
2022/03/22 07:30:02;;;;;;;142.30;52.83;;;7.20;99.90;;;;;;5028935;28;20124;-69
2022/03/22 07:32:27;;;;;;;140.52;53.05;;;7.30;99.90;;;;;;5047487;28;20044;-70
2022/03/22 07:34:53;;;;;;;145.80;52.67;;;7.50;99.90;;;;;;5044843;28;20033;-70
2022/03/22 07:37:19;;;;;;;152.45;53.97;;;7.70;99.90;;;;;;5050661;28;20037;-69
2022/03/22 07:39:44;;;;;;;153.93;55.70;;;7.80;99.90;;;;;;5068867;28;20593;-70
2022/03/22 07:42:10;;;;;;;157.45;56.38;;;8.00;99.90;;;;;;5052882;28;20039;-70
2022/03/22 07:44:35;;;;;;;143.23;53.25;;;8.10;99.90;;;;;;5039422;28;20487;-70
2022/03/22 07:47:01;;;;;;;138.77;50.92;;;8.30;99.90;;;;;;5047620;28;20138;-70
2022/03/22 07:54:56;;;;;;;154.07;55.83;;;8.90;99.90;;;;;;5018748;28;20040;-70
2022/03/22 07:57:22;;;;;;;144.68;54.60;;;9.10;99.90;;;;;;5048891;28;20056;-70
2022/03/22 07:59:47;;;;;;;146.00;54.65;;;9.30;99.90;;;;;;5047704;28;20051;-71
2022/03/22 08:02:13;;;;;;;138.10;54.28;;;9.40;99.90;;;;;;5048403;28;20049;-71
2022/03/22 08:04:38;;;;;;;145.77;53.17;;;9.60;99.90;;;;;;5053362;28;20040;-71
2022/03/22 08:07:04;;;;;;;151.50;54.75;;;9.70;99.90;;;;;;5048524;28;20399;-72
2022/03/22 08:09:29;;;;;;;140.00;51.47;;;9.90;99.90;;;;;;5047956;28;20040;-72
2022/03/22 08:11:55;;;;;;;141.32;51.03;;;10.00;99.90;;;;;;5032228;28;20080;-72
2022/03/22 08:14:21;;;;;;;139.35;52.00;;;10.10;99.90;;;;;;5030743;28;20036;-71
2022/03/22 08:16:46;;;;;;;135.48;50.78;;;10.20;99.90;;;;;;5047953;28;20522;-71
2022/03/22 08:19:18;;;;;;;130.00;50.42;;;10.30;99.90;;;;;;5047999;28;20037;-71
2022/03/22 08:21:44;;;;;;;132.53;51.80;;;10.50;99.90;;;;;;5047348;28;20037;-72
2022/03/22 08:24:10;;;;;;;132.93;50.83;;;10.50;99.90;;;;;;5060678;28;20041;-71
2022/03/22 08:26:36;;;;;;;132.93;50.40;;;10.70;99.90;;;;;;5048944;28;20040;-71
2022/03/22 08:29:03;;;;;;;128.02;49.15;;;10.70;99.90;;;;;;5047477;28;20033;-71
2022/03/22 08:31:29;;;;;;;127.18;49.58;;;10.80;99.90;;;;;;5048811;28;20044;-71
2022/03/22 08:33:56;;;;;;;133.23;49.53;;;10.90;99.90;;;;;;5048460;28;20037;-72
2022/03/22 08:36:22;;;;;;;130.02;51.10;;;11.00;99.90;;;;;;5047391;28;20045;-71
2022/03/22 08:38:48;;;;;;;137.13;51.67;;;11.10;99.90;;;;;;5048406;28;20079;-72
2022/03/22 08:41:14;;;;;;;128.68;49.28;;;11.20;99.90;;;;;;5030861;28;20039;-72
2022/03/22 08:43:40;;;;;;;129.13;50.53;;;11.20;99.90;;;;;;5050025;28;20047;-72
2022/03/22 08:46:06;;;;;;;134.20;50.80;;;11.30;99.90;;;;;;5047934;28;20129;-72
2022/03/22 08:48:32;;;;;;;124.15;48.78;;;11.40;99.90;;;;;;5048246;28;20456;-71
2022/03/22 08:50:58;;;;;;;121.38;49.58;;;11.50;99.90;;;;;;5045390;28;20079;-72
2022/03/22 08:53:24;;;;;;;117.35;47.58;;;11.60;99.90;;;;;;5045707;28;20063;-72
2022/03/22 08:55:50;;;;;;;128.07;50.78;;;11.60;99.90;;;;;;5053646;28;20051;-71
2022/03/22 08:58:17;;;;;;;120.28;49.95;;;11.70;99.90;;;;;;5060303;28;20041;-72
2022/03/22 09:00:45;;;;;;;124.72;49.92;;;11.80;99.90;;;;;;5050050;28;20079;-72
2022/03/22 09:03:11;;;;;;;118.35;49.95;;;11.90;99.90;;;;;;5043499;28;20124;-71
2022/03/22 09:08:20;;;;;;;127.53;49.03;;;12.10;99.90;;;;;;5048668;28;20051;-71
2022/03/22 09:10:49;;;;;;;118.07;47.95;;;12.20;99.90;;;;;;5047445;28;20033;-71
2022/03/22 09:13:16;;;;;;;118.75;48.63;;;12.30;99.90;;;;;;5048307;28;20119;-71
2022/03/22 09:15:42;;;;;;;122.97;49.78;;;12.30;99.90;;;;;;5051799;28;20045;-71
2022/03/22 09:18:16;;;;;;;120.03;47.88;;;12.40;99.90;;;;;;5050525;28;20036;-70
2022/03/22 09:20:44;;;;;;;119.60;47.30;;;12.50;99.90;;;;;;5044069;28;20496;-70
2022/03/22 09:23:11;;;;;;;119.95;46.97;;;12.50;99.90;;;;;;5053957;28;20048;-70
2022/03/22 09:25:37;;;;;;;121.00;47.22;;;12.50;99.90;;;;;;5051333;28;20380;-70
2022/03/22 09:28:05;;;;;;;115.38;44.13;;;12.60;99.90;;;;;;5050198;28;20041;-70
2022/03/22 09:30:32;;;;;;;107.57;43.30;;;12.70;99.90;;;;;;5051279;28;20128;-71
2022/03/22 09:32:57;;;;;;;107.13;44.50;;;12.80;99.90;;;;;;5050964;28;20447;-71
2022/03/22 09:35:23;;;;;;;111.85;43.88;;;12.90;99.90;;;;;;5047322;28;20043;-71
2022/03/22 09:37:50;;;;;;;112.53;44.42;;;13.00;99.90;;;;;;5050584;28;20078;-71
2022/03/22 09:40:18;;;;;;;107.70;45.05;;;13.20;99.90;;;;;;5033369;28;20053;-71
2022/03/22 09:42:45;;;;;;;103.18;42.03;;;13.30;99.90;;;;;;5032369;28;20060;-72
2022/03/22 09:45:17;;;;;;;104.30;43.80;;;13.40;99.90;;;;;;5051183;28;20032;-70
2022/03/22 09:47:44;;;;;;;105.28;43.28;;;13.60;99.90;;;;;;5051754;28;20087;-71
2022/03/22 09:50:11;;;;;;;108.97;44.17;;;13.70;99.90;;;;;;5029961;28;20380;-71
2022/03/22 09:52:37;;;;;;;100.03;43.60;;;13.80;99.90;;;;;;5059358;28;20053;-71
2022/03/22 09:55:05;;;;;;;106.70;43.88;;;13.90;99.90;;;;;;5041892;28;20507;-71
2022/03/22 09:57:30;;;;;;;107.68;44.78;;;14.00;99.90;;;;;;5050967;28;20139;-71
2022/03/22 09:59:56;;;;;;;109.88;44.28;;;14.10;99.90;;;;;;5050059;28;20124;-71
2022/03/22 10:02:35;;;;;;;104.32;43.97;;;14.10;99.90;;;;;;5033988;28;20047;-71
2022/03/22 10:05:02;;;;;;;103.78;44.22;;;14.20;99.90;;;;;;5051076;28;20480;-71
2022/03/22 10:07:27;;;;;;;108.93;42.85;;;14.40;99.90;;;;;;5034235;28;20107;-72
2022/03/22 10:09:58;;;;;;;112.50;45.47;;;14.50;99.90;;;;;;5046424;28;20053;-72
2022/03/22 10:12:35;;;;;;;105.35;41.92;;;14.60;99.90;;;;;;5055510;28;20044;-71
2022/03/22 10:15:15;;;;;;;107.32;45.75;;;14.80;99.90;;;;;;5049556;28;20076;-71
2022/03/22 10:17:46;;;;;;;110.63;45.63;;;14.80;99.90;;;;;;5056817;28;20036;-72
2022/03/22 10:20:23;;;;;;;114.07;45.13;;;15.00;99.90;;;;;;5044587;28;20499;-72
2022/03/22 10:22:58;;;;;;;108.95;43.78;;;15.10;99.90;;;;;;5050868;28;20053;-72
2022/03/22 10:25:24;;;;;;;100.00;42.22;;;15.20;99.90;;;;;;5048343;28;20047;-72
2022/03/22 10:27:57;;;;;;;102.03;43.17;;;15.30;99.90;;;;;;5049034;28;20045;-72
2022/03/22 10:30:23;;;;;;;105.60;42.85;;;15.40;99.90;;;;;;5045513;28;20507;-71
2022/03/22 10:32:51;;;;;;;98.90;41.33;;;15.50;99.90;;;;;;5057251;28;20041;-72
2022/03/22 10:35:24;;;;;;;102.03;42.17;;;15.60;99.90;;;;;;5029708;28;20502;-72
2022/03/22 10:37:54;;;;;;;105.32;43.03;;;15.70;99.90;;;;;;5050184;28;20044;-71
2022/03/22 10:40:24;;;;;;;104.15;43.67;;;15.80;99.90;;;;;;5031188;28;20446;-72
2022/03/22 10:43:13;;;;;;;102.78;42.28;;;15.90;99.90;;;;;;5048610;28;20136;-72
2022/03/22 10:45:49;;;;;;;105.20;41.75;;;16.00;99.90;;;;;;5049866;28;20090;-71
2022/03/22 10:48:20;;;;;;;97.28;40.78;;;16.10;99.90;;;;;;5050158;28;20041;-72
2022/03/22 10:50:47;;;;;;;96.60;42.03;;;16.20;99.90;;;;;;5048615;28;20032;-71
2022/03/22 10:53:18;;;;;;;95.32;43.17;;;16.30;99.90;;;;;;5049999;28;20143;-72
2022/03/22 10:55:45;;;;;;;94.10;41.22;;;16.40;99.90;;;;;;5048066;28;20052;-73
2022/03/22 10:58:18;;;;;;;98.72;41.38;;;16.50;99.90;;;;;;5051213;28;20045;-72
2022/03/22 11:00:45;;;;;;;90.45;39.40;;;16.60;99.90;;;;;;5049070;28;20045;-72
2022/03/22 11:03:13;;;;;;;95.43;39.63;;;16.60;99.90;;;;;;5032594;28;20494;-71
2022/03/22 11:05:40;;;;;;;86.07;38.45;;;16.70;99.90;;;;;;5049338;28;20124;-71
2022/03/22 11:08:06;;;;;;;95.50;39.30;;;16.70;99.90;;;;;;5049529;28;20443;-71
2022/03/22 11:10:32;;;;;;;91.07;40.33;;;16.80;99.90;;;;;;5038314;28;20103;-72
2022/03/22 11:12:59;;;;;;;90.63;39.67;;;16.80;99.90;;;;;;5042205;28;20036;-72
2022/03/22 11:15:26;;;;;;;87.32;39.15;;;16.90;99.90;;;;;;5031951;28;20048;-71
2022/03/22 11:17:54;;;;;;;93.47;39.00;;;17.00;99.90;;;;;;5048970;28;20041;-72
2022/03/22 11:20:23;;;;;;;92.75;39.38;;;17.00;99.90;;;;;;5047042;28;20419;-72
2022/03/22 11:22:50;;;;;;;89.93;38.08;;;17.20;99.90;;;;;;5048472;28;20492;-72
2022/03/22 11:25:36;;;;;;;84.03;38.45;;;17.30;99.90;;;;;;5044312;28;20040;-71
2022/03/22 11:28:07;;;;;;;91.15;38.38;;;17.30;99.90;;;;;;5045332;28;20099;-71
2022/03/22 11:30:34;;;;;;;95.30;40.10;;;17.40;99.90;;;;;;5032224;28;20106;-72
2022/03/22 11:35:46;;;;;;;94.60;40.05;;;17.60;99.90;;;;;;5041708;28;20048;-72
2022/03/22 11:38:13;;;;;;;93.95;39.85;;;17.60;99.90;;;;;;5047921;28;20064;-72
2022/03/22 11:43:43;;;;;;;88.30;39.00;;;17.70;99.90;;;;;;5059659;28;20060;-72
2022/03/22 11:46:08;;;;;;;91.78;38.63;;;17.70;99.90;;;;;;5046253;28;20036;-72
2022/03/22 11:48:38;;;;;;;89.47;38.05;;;17.80;99.90;;;;;;5024995;28;20064;-72
2022/03/22 11:51:05;;;;;;;95.38;38.90;;;17.90;99.90;;;;;;5043172;28;20032;-72
2022/03/22 11:53:42;;;;;;;92.63;38.10;;;18.10;99.90;;;;;;5029654;28;20067;-72
2022/03/22 11:56:09;;;;;;;89.80;38.88;;;18.10;99.90;;;;;;5059056;28;20502;-72
2022/03/22 11:58:34;;;;;;;91.35;39.05;;;18.20;99.90;;;;;;5045024;28;20102;-72
2022/03/22 12:01:01;;;;;;;91.72;39.25;;;18.30;99.40;;;;;;5038751;28;20037;-72
2022/03/22 12:03:35;;;;;;;93.05;38.63;;;18.30;99.30;;;;;;5045824;28;20062;-72
2022/03/22 12:06:11;;;;;;;89.65;39.75;;;18.30;99.60;;;;;;5048108;28;20044;-72
2022/03/22 12:08:37;;;;;;;92.28;39.40;;;18.40;91.60;;;;;;5044784;28;20041;-72
2022/03/22 12:11:02;;;;;;;101.88;39.03;;;18.50;99.90;;;;;;5047497;28;20445;-72
2022/03/22 12:13:30;;;;;;;87.97;37.55;;;18.50;97.20;;;;;;5048694;28;20055;-72
2022/03/22 12:16:00;;;;;;;85.40;37.30;;;18.60;94.50;;;;;;5047252;28;20060;-72
2022/03/22 12:18:30;;;;;;;84.43;36.00;;;18.60;94.60;;;;;;5047568;28;20045;-71
2022/03/22 12:20:56;;;;;;;84.97;36.20;;;18.60;95.50;;;;;;5047538;28;20033;-72
2022/03/22 12:23:22;;;;;;;79.32;35.95;;;18.60;93.90;;;;;;5047548;28;20037;-71
2022/03/22 12:25:48;;;;;;;85.20;38.05;;;18.60;92.20;;;;;;5063344;28;20045;-72
2022/03/22 12:28:16;;;;;;;86.45;36.55;;;18.60;90.60;;;;;;5047647;28;20606;-72
2022/03/22 12:30:44;;;;;;;86.07;35.28;;;18.60;90.80;;;;;;5046892;28;20049;-72
2022/03/22 12:33:13;;;;;;;85.50;37.08;;;18.60;88.10;;;;;;5047225;28;20511;-72
2022/03/22 12:35:40;;;;;;;80.45;35.30;;;18.70;90.20;;;;;;5047718;28;20064;-72
2022/03/22 12:38:06;;;;;;;80.90;35.13;;;18.70;91.00;;;;;;5048194;28;20044;-71
2022/03/22 12:40:33;;;;;;;85.35;36.63;;;18.80;82.00;;;;;;5042454;28;20037;-71
2022/03/22 12:42:59;;;;;;;92.03;37.38;;;18.80;74.10;;;;;;5047685;28;20033;-72
2022/03/22 12:45:28;;;;;;;86.88;36.88;;;18.80;81.50;;;;;;5047441;28;20148;-72
2022/03/22 12:47:56;;;;;;;78.95;35.63;;;18.80;79.50;;;;;;5047721;28;20493;-72
2022/03/22 12:50:23;;;;;;;85.90;36.72;;;18.90;83.00;;;;;;5048821;28;20055;-71
2022/03/22 12:52:50;;;;;;;83.63;35.72;;;19.00;81.30;;;;;;5051153;28;20111;-72
2022/03/22 12:55:17;;;;;;;83.15;34.67;;;19.00;85.90;;;;;;5051448;28;20045;-72
2022/03/22 12:57:46;;;;;;;80.55;34.70;;;19.10;76.30;;;;;;5049404;28;20068;-72
2022/03/22 13:00:25;;;;;;;76.57;32.53;;;19.20;79.90;;;;;;5031898;28;20105;-71
2022/03/22 13:02:51;;;;;;;81.43;34.92;;;19.20;77.70;;;;;;5051076;28;20129;-73